Meteo Giornale » Osservazioni meteo Italia » Treviso-Istrana

ore: 14:55 - Osservazioni Meteo Treviso-Istrana
Lat. 45° 41' N Lon. 12° 6' E Alt. 45 metri s.l.m.

sereno Europe/Rome

10 °C

Sereno

Temp. 24 Ore

0 °C

11 °C

Nord

0 Km/h

Dew point 5 °C

Umidità 71 %

Visibilità  8 Km

Il sole sorge alle ore 07:25

Il sole tramonta alle ore 16:32

Data e Ora Cielo e Fenomeni T °C DP °C Um. % Pres. hPa Vis. km Vento km/h
Oggi h: 14:55 sereno Sereno 10 5 71 1022 8 N 0
Oggi h: 13:55 sereno Sereno 10 5 71 1022 8 N 3.7
Oggi h: 12:55 sereno Sereno 10 5 71 1023 8 N 3.7
Oggi h: 11:55 sereno Sereno 9 5 75 1023 8 N 3.7
Oggi h: 10:55 sereno Sereno 8 4 75 1023 10 N 3.7
Oggi h: 09:55 sereno Sereno 4 3 93 1024 10 N 3.7
Oggi h: 08:55 sereno Sereno 2 1 93 1024 8 N 3.7
Oggi h: 06:55 foschia Foschia 0 -1 92 1023 3 N 5.5
Oggi h: 05:55 foschia Foschia 0 -1 92 1023 3 N 0
Oggi h: 04:55 foschia Foschia 0 -0 100 1023 3 N 0
Oggi h: 02:55 foschia Foschia 1 1 100 1024 3 N 0
Oggi h: 01:55 foschia Foschia 1 1 100 1024 3 N 0
Oggi h: 00:55 foschia Foschia 1 1 100 1024 4 N 3.7
Ieri h: 23:55 foschia Foschia 2 2 100 1024 5 N 0
Ieri h: 22:55 foschia Foschia 3 2 93 1024 5 N 0
Ieri h: 19:55 sereno Sereno 5 4 93 1024 7 N 7.4
Ieri h: 18:55 sereno Sereno 6 4 86 1023 7 N 5.5
Ieri h: 17:55 sereno Sereno 6 4 86 1023 8 N 3.7
Ieri h: 16:55 sereno Sereno 8 3 70 1023 8 N 3.7
Ieri h: 15:55 sereno Sereno 11 4 61 1023 9 N 5.5